Time;durP1;ratioP1;P1;durP2;ratioP2;P2;SDS_P1;SDS_P2;PMS_P1;PMS_P2;Temp;Humidity;BMP_temperature;BMP_pressure;BME280_temperature;BME280_humidity;BME280_pressure;Samples;Min_cycle;Max_cycle;Signal;HPM_P1;HPM_P2
2021/05/18 00:01:45;;;;;;;6.28;1.92;;;;;;;;;;5063617;28;20275;-74
2021/05/18 00:04:11;;;;;;;7.73;3.20;;;;;;;;;;5050400;28;20181;-79
2021/05/18 00:06:37;;;;;;;6.25;2.17;;;;;;;;;;5063401;28;20444;-78
2021/05/18 00:11:59;;;;;;;3.53;1.50;;;;;;;;;;5041319;28;20445;-77
2021/05/18 00:14:26;;;;;;;4.70;1.95;;;;;;;;;;5041903;28;20208;-77
2021/05/18 00:16:53;;;;;;;4.65;1.75;;;;;;;;;;5041924;28;20201;-77
2021/05/18 00:19:19;;;;;;;4.95;1.50;;;;;;;;;;5042705;28;20174;-79
2021/05/18 00:21:46;;;;;;;6.07;1.55;;;;;;;;;;5042282;28;20189;-77
2021/05/18 00:24:13;;;;;;;6.47;2.30;;;;;;;;;;5041660;28;20257;-76
2021/05/18 00:26:39;;;;;;;5.22;1.40;;;;;;;;;;5041213;28;20201;-77
2021/05/18 00:29:06;;;;;;;6.32;2.67;;;;;;;;;;5042235;28;20206;-79
2021/05/18 00:31:32;;;;;;;6.05;1.45;;;;;;;;;;5042215;28;20181;-78
2021/05/18 00:33:58;;;;;;;3.55;1.70;;;;;;;;;;5042407;28;20513;-77
2021/05/18 00:36:24;;;;;;;5.13;1.55;;;;;;;;;;5041141;28;20657;-76
2021/05/18 00:38:50;;;;;;;10.13;2.53;;;;;;;;;;5041469;28;20225;-77
2021/05/18 00:41:16;;;;;;;4.70;1.45;;;;;;;;;;5041371;28;20440;-76
2021/05/18 00:43:42;;;;;;;9.15;1.90;;;;;;;;;;5042292;28;20645;-78
2021/05/18 00:46:09;;;;;;;5.32;1.70;;;;;;;;;;5025467;28;20181;-76
2021/05/18 00:48:35;;;;;;;5.22;1.73;;;;;;;;;;5043135;28;20204;-75
2021/05/18 00:51:06;;;;;;;7.63;1.95;;;;;;;;;;5068130;28;20189;-78
2021/05/18 00:53:32;;;;;;;3.95;1.80;;;;;;;;;;5051756;28;20205;-76
2021/05/18 00:56:03;;;;;;;4.50;1.43;;;;;;;;;;5049374;28;20181;-77
2021/05/18 00:58:34;;;;;;;6.22;1.40;;;;;;;;;;5063452;28;20420;-76
2021/05/18 01:01:05;;;;;;;2.95;1.27;;;;;;;;;;5049207;28;20264;-78
2021/05/18 01:03:32;;;;;;;3.65;1.27;;;;;;;;;;5052657;28;20190;-77
2021/05/18 01:08:44;;;;;;;8.10;2.05;;;;;;;;;;5052507;28;20201;-77
2021/05/18 01:11:10;;;;;;;8.38;1.70;;;;;;;;;;5051076;28;20244;-76
2021/05/18 01:13:37;;;;;;;3.42;1.48;;;;;;;;;;5062777;28;20212;-78
2021/05/18 01:16:07;;;;;;;6.38;2.00;;;;;;;;;;5049832;28;20162;-77
2021/05/18 01:18:37;;;;;;;10.15;2.05;;;;;;;;;;5052232;28;20192;-77
2021/05/18 01:21:03;;;;;;;8.38;2.22;;;;;;;;;;5069938;28;20192;-76
2021/05/18 01:23:29;;;;;;;3.28;1.50;;;;;;;;;;5057411;28;20189;-75
2021/05/18 01:25:55;;;;;;;2.40;1.50;;;;;;;;;;5062969;28;20219;-76
2021/05/18 01:28:22;;;;;;;4.80;2.67;;;;;;;;;;5062978;28;20173;-76
2021/05/18 01:30:49;;;;;;;9.70;2.40;;;;;;;;;;5051811;28;20949;-77
2021/05/18 01:33:15;;;;;;;6.70;1.85;;;;;;;;;;5071961;28;20240;-77
2021/05/18 01:35:41;;;;;;;8.55;1.80;;;;;;;;;;5055514;28;20571;-76
2021/05/18 01:38:11;;;;;;;5.05;2.00;;;;;;;;;;5050023;28;20267;-76
2021/05/18 01:43:10;;;;;;;3.65;1.35;;;;;;;;;;5049412;28;20240;-77
2021/05/18 01:45:36;;;;;;;6.03;2.40;;;;;;;;;;5051762;28;20200;-77
2021/05/18 01:48:09;;;;;;;3.40;1.25;;;;;;;;;;5067362;28;20189;-77
2021/05/18 01:50:35;;;;;;;7.97;2.35;;;;;;;;;;5051684;28;20169;-77
2021/05/18 01:53:02;;;;;;;7.50;1.48;;;;;;;;;;5049227;28;20678;-77
2021/05/18 01:57:57;;;;;;;7.25;3.10;;;;;;;;;;5050770;28;20166;-76
2021/05/18 02:00:25;;;;;;;3.00;1.60;;;;;;;;;;5052047;28;20193;-77
2021/05/18 02:02:52;;;;;;;3.70;1.45;;;;;;;;;;5051261;28;20247;-77
2021/05/18 02:05:18;;;;;;;8.23;2.00;;;;;;;;;;5063310;28;20308;-76
2021/05/18 02:07:45;;;;;;;6.22;3.28;;;;;;;;;;5061756;28;20208;-78
2021/05/18 02:10:13;;;;;;;3.30;1.70;;;;;;;;;;5062804;28;20244;-77
2021/05/18 02:12:39;;;;;;;5.63;2.20;;;;;;;;;;5059454;28;20235;-77
2021/05/18 02:18:14;;;;;;;8.30;2.28;;;;;;;;;;5051049;28;20197;-77
2021/05/18 02:20:46;;;;;;;4.80;1.75;;;;;;;;;;5054212;28;20182;-77
2021/05/18 02:25:57;;;;;;;5.63;1.40;;;;;;;;;;5048228;28;20207;-77
2021/05/18 02:28:23;;;;;;;3.22;2.25;;;;;;;;;;5047004;28;20193;-76
2021/05/18 02:30:50;;;;;;;3.80;2.00;;;;;;;;;;5051307;28;20205;-77
2021/05/18 02:33:16;;;;;;;7.03;1.88;;;;;;;;;;5066494;28;20291;-76
2021/05/18 02:35:42;;;;;;;4.50;1.73;;;;;;;;;;5069785;28;20186;-75
2021/05/18 02:38:08;;;;;;;4.30;1.42;;;;;;;;;;5053720;28;20731;-76
2021/05/18 02:40:36;;;;;;;4.90;1.65;;;;;;;;;;5065585;28;20237;-75
2021/05/18 02:43:03;;;;;;;9.48;2.10;;;;;;;;;;5052947;28;20201;-77
2021/05/18 02:46:08;;;;;;;5.28;2.75;;;;;;;;;;5060374;28;20181;-79
2021/05/18 02:51:06;;;;;;;3.70;1.63;;;;;;;;;;5055155;28;20204;-77
2021/05/18 02:53:32;;;;;;;6.33;1.70;;;;;;;;;;5055027;28;20292;-78
2021/05/18 02:56:04;;;;;;;2.78;1.20;;;;;;;;;;5065745;28;20432;-77
2021/05/18 02:58:31;;;;;;;3.58;2.03;;;;;;;;;;5066390;28;20169;-77
2021/05/18 03:00:58;;;;;;;10.10;1.88;;;;;;;;;;5050172;28;20176;-77
2021/05/18 03:03:24;;;;;;;5.40;2.33;;;;;;;;;;5058295;28;20326;-76
2021/05/18 03:05:50;;;;;;;7.30;2.17;;;;;;;;;;5077564;28;20192;-77
2021/05/18 03:08:18;;;;;;;7.25;1.95;;;;;;;;;;5060286;28;20240;-76
2021/05/18 03:10:44;;;;;;;6.80;2.13;;;;;;;;;;5049817;28;20232;-77
2021/05/18 03:13:10;;;;;;;7.60;2.33;;;;;;;;;;5051565;28;20202;-77
2021/05/18 03:15:36;;;;;;;5.20;2.22;;;;;;;;;;5054597;28;20769;-76
2021/05/18 03:18:03;;;;;;;5.10;1.90;;;;;;;;;;5075762;28;20193;-78
2021/05/18 03:20:29;;;;;;;4.45;2.15;;;;;;;;;;5064605;28;20439;-77
2021/05/18 03:22:55;;;;;;;4.57;1.90;;;;;;;;;;5051498;28;20255;-77
2021/05/18 03:25:22;;;;;;;4.07;2.13;;;;;;;;;;5050187;28;20783;-77
2021/05/18 03:27:48;;;;;;;5.38;1.77;;;;;;;;;;5063160;28;20264;-78
2021/05/18 03:30:34;;;;;;;5.68;2.20;;;;;;;;;;5058790;28;20200;-76
2021/05/18 03:35:45;;;;;;;5.55;2.20;;;;;;;;;;5054595;28;20228;-77
2021/05/18 03:38:27;;;;;;;4.20;1.92;;;;;;;;;;5053158;28;20184;-76
2021/05/18 03:41:00;;;;;;;3.28;1.50;;;;;;;;;;5049806;28;20173;-75
2021/05/18 03:48:39;;;;;;;2.93;1.53;;;;;;;;;;5060323;28;20201;-77
2021/05/18 03:54:35;;;;;;;5.55;1.80;;;;;;;;;;5054117;28;20243;-76
2021/05/18 04:18:34;;;;;;;7.90;2.65;;;;;;;;;;5063638;28;20200;-77
2021/05/18 04:21:13;;;;;;;5.35;1.63;;;;;;;;;;5078282;28;20239;-78
2021/05/18 04:51:26;;;;;;;6.20;1.38;;;;;;;;;;5057304;28;20196;-76
2021/05/18 04:59:37;;;;;;;3.65;1.60;;;;;;;;;;5056370;28;20253;-76
2021/05/18 05:07:10;;;;;;;3.17;1.40;;;;;;;;;;5050873;28;20219;-77
2021/05/18 05:09:39;;;;;;;8.48;3.20;;;;;;;;;;5074590;28;20181;-77
2021/05/18 05:14:47;;;;;;;5.30;2.53;;;;;;;;;;5052133;28;20298;-77
2021/05/18 05:17:13;;;;;;;6.95;2.10;;;;;;;;;;5063470;28;20186;-77
2021/05/18 05:19:39;;;;;;;5.75;2.03;;;;;;;;;;5058907;28;20203;-77
2021/05/18 05:22:06;;;;;;;5.07;1.50;;;;;;;;;;5050651;28;20185;-77
2021/05/18 05:24:37;;;;;;;10.77;3.67;;;;;;;;;;5053399;28;20185;-78
2021/05/18 05:27:03;;;;;;;5.63;2.00;;;;;;;;;;5051625;28;20209;-76
2021/05/18 05:29:29;;;;;;;7.00;1.40;;;;;;;;;;5052777;28;20174;-78
2021/05/18 05:31:56;;;;;;;6.55;2.40;;;;;;;;;;5061786;28;20184;-77
2021/05/18 05:34:22;;;;;;;10.48;2.47;;;;;;;;;;5047296;28;20224;-76
2021/05/18 05:36:48;;;;;;;7.40;1.60;;;;;;;;;;5059704;28;20189;-77
2021/05/18 05:41:44;;;;;;;5.43;1.90;;;;;;;;;;5059360;28;20221;-81
2021/05/18 05:44:10;;;;;;;6.40;1.80;;;;;;;;;;5061167;28;20185;-77
2021/05/18 05:46:36;;;;;;;10.20;1.73;;;;;;;;;;5062463;28;20427;-77
2021/05/18 05:49:02;;;;;;;5.32;1.52;;;;;;;;;;5064153;28;20184;-76
2021/05/18 05:51:29;;;;;;;5.90;1.85;;;;;;;;;;5053803;28;20181;-79
2021/05/18 05:53:55;;;;;;;10.77;1.98;;;;;;;;;;5070731;28;20296;-77
2021/05/18 05:56:22;;;;;;;5.03;1.95;;;;;;;;;;5051466;28;20211;-77
2021/05/18 05:58:49;;;;;;;6.22;1.70;;;;;;;;;;5061532;28;20186;-77
2021/05/18 06:01:15;;;;;;;5.85;2.65;;;;;;;;;;5063483;28;20177;-77
2021/05/18 06:03:41;;;;;;;6.22;2.15;;;;;;;;;;5051576;28;20265;-79
2021/05/18 06:06:07;;;;;;;10.40;2.38;;;;;;;;;;5052195;28;20193;-77
2021/05/18 06:08:41;;;;;;;6.93;2.40;;;;;;;;;;5051372;28;20181;-76
2021/05/18 06:11:36;;;;;;;9.05;2.47;;;;;;;;;;5080200;28;20238;-76
2021/05/18 06:46:24;;;;;;;3.25;1.88;;;;;;;;;;5041172;28;20174;-79
2021/05/18 06:48:58;;;;;;;3.92;1.60;;;;;;;;;;5035285;28;20197;-79
2021/05/18 06:51:24;;;;;;;10.10;2.80;;;;;;;;;;5043090;28;20190;-79
2021/05/18 06:53:50;;;;;;;7.63;2.40;;;;;;;;;;5042983;28;20218;-77
2021/05/18 06:56:17;;;;;;;8.43;2.17;;;;;;;;;;5042259;28;20193;-77
2021/05/18 07:01:09;;;;;;;4.03;2.03;;;;;;;;;;5044361;28;20213;-78
2021/05/18 07:03:47;;;;;;;8.55;2.45;;;;;;;;;;5065708;28;20431;-78
2021/05/18 07:06:38;;;;;;;5.53;1.80;;;;;;;;;;5066154;28;20187;-79
2021/05/18 07:09:04;;;;;;;4.30;2.20;;;;;;;;;;5064382;28;20177;-81
2021/05/18 07:11:30;;;;;;;6.97;2.58;;;;;;;;;;5062185;28;20212;-76
2021/05/18 07:13:56;;;;;;;4.20;1.80;;;;;;;;;;5050335;28;20197;-77
2021/05/18 07:16:22;;;;;;;8.38;2.25;;;;;;;;;;5057079;28;20179;-76
2021/05/18 07:18:49;;;;;;;5.55;1.60;;;;;;;;;;5063823;28;20173;-78
2021/05/18 07:21:16;;;;;;;5.13;1.65;;;;;;;;;;5063060;28;20180;-80
2021/05/18 07:23:42;;;;;;;4.55;2.40;;;;;;;;;;5060657;28;20208;-78
2021/05/18 07:26:08;;;;;;;8.32;2.50;;;;;;;;;;5062175;28;20193;-79
2021/05/18 07:28:35;;;;;;;6.47;1.65;;;;;;;;;;5064636;28;20545;-80
2021/05/18 07:31:02;;;;;;;14.73;3.10;;;;;;;;;;5065428;28;20334;-76
2021/05/18 07:33:28;;;;;;;4.38;1.70;;;;;;;;;;5060535;28;20670;-80
2021/05/18 07:35:57;;;;;;;4.15;1.70;;;;;;;;;;5061964;28;20208;-87
2021/05/18 07:38:24;;;;;;;6.43;2.97;;;;;;;;;;5062219;28;20188;-78
2021/05/18 07:40:50;;;;;;;11.38;2.17;;;;;;;;;;5063633;28;20177;-78
2021/05/18 07:43:18;;;;;;;7.63;2.97;;;;;;;;;;5076839;28;20609;-77
2021/05/18 07:46:04;;;;;;;5.00;1.98;;;;;;;;;;5064752;28;20670;-77
2021/05/18 07:48:38;;;;;;;7.90;1.90;;;;;;;;;;5080251;28;20185;-79
2021/05/18 08:07:14;;;;;;;3.63;2.05;;;;;;;;;;5060705;28;20188;-77
2021/05/18 08:09:47;;;;;;;12.03;2.17;;;;;;;;;;5061206;28;20213;-78
2021/05/18 08:12:13;;;;;;;6.38;1.80;;;;;;;;;;5057387;28;21268;-80
2021/05/18 08:14:45;;;;;;;2.65;1.65;;;;;;;;;;5061173;28;20721;-77
2021/05/18 08:17:19;;;;;;;4.20;1.60;;;;;;;;;;5061929;28;20289;-77
2021/05/18 09:36:11;;;;;;;4.57;1.75;;;;;;;;;;5061665;28;20286;-77
2021/05/18 10:22:50;;;;;;;5.00;1.80;;;;;;;;;;5055827;28;20185;-78
2021/05/18 10:35:36;;;;;;;2.45;1.25;;;;;;;;;;5059983;28;20196;-79
2021/05/18 10:38:06;;;;;;;3.30;1.05;;;;;;;;;;5060646;28;20189;-79
2021/05/18 10:40:34;;;;;;;3.80;1.30;;;;;;;;;;5062397;28;20250;-78
2021/05/18 10:43:09;;;;;;;2.08;1.10;;;;;;;;;;5061799;28;20497;-82
2021/05/18 10:45:54;;;;;;;4.32;1.25;;;;;;;;;;5076441;28;20187;-80
2021/05/18 10:48:35;;;;;;;2.85;1.17;;;;;;;;;;5060579;28;20216;-81
2021/05/18 10:51:20;;;;;;;7.38;1.23;;;;;;;;;;5061112;28;20193;-81
2021/05/18 10:54:04;;;;;;;8.77;1.90;;;;;;;;;;5058903;28;20212;-80
2021/05/18 10:56:30;;;;;;;2.00;1.35;;;;;;;;;;5053545;28;20181;-78
2021/05/18 10:58:56;;;;;;;2.70;1.00;;;;;;;;;;5074258;28;20622;-87
2021/05/18 11:01:22;;;;;;;3.53;1.50;;;;;;;;;;5053895;28;20420;-78
2021/05/18 11:03:49;;;;;;;5.03;1.13;;;;;;;;;;5065820;28;20430;-79
2021/05/18 11:06:15;;;;;;;2.47;1.02;;;;;;;;;;5061667;28;20442;-77
2021/05/18 11:08:41;;;;;;;4.27;1.10;;;;;;;;;;5061459;28;20203;-80
2021/05/18 11:11:25;;;;;;;1.48;0.77;;;;;;;;;;5065494;28;20471;-79
2021/05/18 11:13:54;;;;;;;2.05;1.15;;;;;;;;;;5057751;28;20287;-79
2021/05/18 11:16:20;;;;;;;3.90;0.90;;;;;;;;;;5049857;28;20535;-79
2021/05/18 11:18:49;;;;;;;1.60;0.93;;;;;;;;;;5069615;28;20174;-85
2021/05/18 11:21:15;;;;;;;2.67;1.00;;;;;;;;;;5054588;28;20796;-78
2021/05/18 11:23:41;;;;;;;3.20;0.95;;;;;;;;;;5053757;28;20197;-77
2021/05/18 11:26:08;;;;;;;1.73;1.00;;;;;;;;;;5052484;28;20858;-79
2021/05/18 11:28:37;;;;;;;3.40;1.30;;;;;;;;;;5064962;28;20918;-85
2021/05/18 11:31:10;;;;;;;1.63;1.00;;;;;;;;;;5066603;28;20173;-81
2021/05/18 11:33:38;;;;;;;1.73;1.02;;;;;;;;;;5079594;28;20292;-79
2021/05/18 11:36:07;;;;;;;1.80;1.00;;;;;;;;;;5065068;28;20192;-77
2021/05/18 11:38:34;;;;;;;2.15;0.98;;;;;;;;;;5063002;28;20177;-78
2021/05/18 11:41:00;;;;;;;1.75;0.95;;;;;;;;;;5050517;28;20181;-79
2021/05/18 11:43:39;;;;;;;1.40;0.90;;;;;;;;;;5080677;28;20392;-78
2021/05/18 11:46:13;;;;;;;3.50;1.98;;;;;;;;;;5062935;28;20176;-78
2021/05/18 11:49:00;;;;;;;4.30;1.13;;;;;;;;;;5064228;28;20197;-80
2021/05/18 11:51:29;;;;;;;4.75;1.40;;;;;;;;;;5058877;28;20203;-79
2021/05/18 11:53:55;;;;;;;1.90;1.13;;;;;;;;;;5079175;28;20204;-85
2021/05/18 11:56:22;;;;;;;3.80;1.10;;;;;;;;;;5064876;28;20185;-79
2021/05/18 11:58:48;;;;;;;2.30;1.10;;;;;;;;;;5075839;28;20165;-80
2021/05/18 12:01:14;;;;;;;3.28;1.30;;;;;;;;;;5064009;28;20172;-82
2021/05/18 12:03:40;;;;;;;1.70;1.30;;;;;;;;;;5062357;28;20210;-81
2021/05/18 12:06:07;;;;;;;1.85;1.10;;;;;;;;;;5060085;28;20264;-78
2021/05/18 12:08:36;;;;;;;2.38;1.20;;;;;;;;;;5055457;28;20322;-78
2021/05/18 12:11:16;;;;;;;3.78;1.45;;;;;;;;;;5078051;28;20224;-77
2021/05/18 12:13:43;;;;;;;1.65;0.90;;;;;;;;;;5077191;28;20208;-85
2021/05/18 12:16:09;;;;;;;5.25;1.70;;;;;;;;;;5076706;28;20254;-82
2021/05/18 12:18:36;;;;;;;3.35;1.20;;;;;;;;;;5052963;28;20183;-82
2021/05/18 12:21:18;;;;;;;2.30;1.10;;;;;;;;;;5052729;28;20184;-81
2021/05/18 12:24:01;;;;;;;2.78;1.38;;;;;;;;;;5061836;28;20183;-85
2021/05/18 12:26:27;;;;;;;1.52;1.20;;;;;;;;;;5053574;28;20188;-83
2021/05/18 12:29:05;;;;;;;1.90;1.20;;;;;;;;;;5049883;28;20187;-81
2021/05/18 12:31:31;;;;;;;2.27;0.93;;;;;;;;;;5053904;28;20267;-87
2021/05/18 12:33:58;;;;;;;2.50;1.40;;;;;;;;;;5060114;28;20441;-81
2021/05/18 12:36:24;;;;;;;1.70;1.00;;;;;;;;;;5068160;28;20762;-78
2021/05/18 12:39:09;;;;;;;1.70;0.90;;;;;;;;;;5059871;28;20410;-77
2021/05/18 12:41:48;;;;;;;2.63;1.00;;;;;;;;;;5078608;28;20459;-80
2021/05/18 12:44:13;;;;;;;1.00;0.80;;;;;;;;;;5063190;28;20811;-83
2021/05/18 12:47:09;;;;;;;5.70;1.03;;;;;;;;;;5063195;28;20438;-82
2021/05/18 12:49:39;;;;;;;1.37;0.90;;;;;;;;;;5051956;28;20452;-85
2021/05/18 12:52:10;;;;;;;2.40;0.80;;;;;;;;;;5063430;28;20414;-81
2021/05/18 12:54:44;;;;;;;2.43;1.00;;;;;;;;;;5067125;28;20476;-80
2021/05/18 12:57:10;;;;;;;2.70;0.97;;;;;;;;;;5071115;28;20820;-75
2021/05/18 12:59:55;;;;;;;2.43;0.90;;;;;;;;;;5054449;28;20433;-82
2021/05/18 13:02:38;;;;;;;1.93;0.90;;;;;;;;;;5051757;28;20416;-76
2021/05/18 13:05:24;;;;;;;1.27;0.87;;;;;;;;;;5065203;28;20442;-78
2021/05/18 13:08:04;;;;;;;2.10;0.90;;;;;;;;;;5052045;28;20398;-77
2021/05/18 13:13:26;;;;;;;2.30;0.82;;;;;;;;;;5037897;28;20211;-76
2021/05/18 13:15:52;;;;;;;1.80;1.00;;;;;;;;;;5037575;28;20182;-80
2021/05/18 13:18:18;;;;;;;2.58;0.90;;;;;;;;;;5035568;28;20433;-79
2021/05/18 13:20:47;;;;;;;1.33;0.90;;;;;;;;;;5035715;28;20786;-82
2021/05/18 13:23:29;;;;;;;2.85;1.13;;;;;;;;;;5036586;28;20190;-78
2021/05/18 13:28:39;;;;;;;4.32;1.13;;;;;;;;;;5040448;28;20205;-78
2021/05/18 13:31:06;;;;;;;2.37;1.20;;;;;;;;;;5024762;28;20187;-78
2021/05/18 13:33:32;;;;;;;1.58;1.00;;;;;;;;;;5038212;28;20499;-75
2021/05/18 13:35:59;;;;;;;3.60;1.00;;;;;;;;;;5037163;28;20185;-74
2021/05/18 13:38:25;;;;;;;2.40;1.10;;;;;;;;;;5037452;28;20178;-75
2021/05/18 13:40:51;;;;;;;3.80;1.30;;;;;;;;;;5043387;28;20430;-74
2021/05/18 13:43:17;;;;;;;3.33;1.25;;;;;;;;;;5040061;28;20429;-74
2021/05/18 13:45:43;;;;;;;1.25;1.08;;;;;;;;;;5043463;28;20209;-73
2021/05/18 13:48:09;;;;;;;2.75;0.90;;;;;;;;;;5037371;28;20197;-74
2021/05/18 13:50:36;;;;;;;2.75;1.00;;;;;;;;;;5069075;28;20599;-73
2021/05/18 13:53:02;;;;;;;3.30;1.13;;;;;;;;;;5063232;28;20216;-74
2021/05/18 13:55:29;;;;;;;1.42;0.98;;;;;;;;;;5046685;28;20214;-73
2021/05/18 13:57:55;;;;;;;1.60;1.20;;;;;;;;;;5058499;28;20177;-73
2021/05/18 14:00:21;;;;;;;4.32;1.30;;;;;;;;;;5061313;28;20195;-74
2021/05/18 14:02:48;;;;;;;2.28;1.20;;;;;;;;;;5058973;28;20569;-74
2021/05/18 14:05:15;;;;;;;2.13;1.20;;;;;;;;;;5067424;28;20196;-75
2021/05/18 14:10:17;;;;;;;1.98;1.10;;;;;;;;;;5058966;28;20651;-76
2021/05/18 14:12:43;;;;;;;4.32;1.38;;;;;;;;;;5050871;28;20197;-75
2021/05/18 14:15:09;;;;;;;1.60;1.08;;;;;;;;;;5067262;28;20204;-75
2021/05/18 14:17:35;;;;;;;2.53;1.10;;;;;;;;;;5060903;28;20238;-75
2021/05/18 14:20:01;;;;;;;4.35;1.30;;;;;;;;;;5076691;28;20196;-76
2021/05/18 14:22:27;;;;;;;3.33;1.13;;;;;;;;;;5051484;28;20179;-76
2021/05/18 14:25:04;;;;;;;1.75;1.00;;;;;;;;;;5061965;28;20443;-75
2021/05/18 14:27:30;;;;;;;3.15;1.20;;;;;;;;;;5050999;28;20553;-75
2021/05/18 14:29:56;;;;;;;3.28;1.10;;;;;;;;;;5055179;28;20188;-76
2021/05/18 14:32:22;;;;;;;3.30;2.20;;;;;;;;;;5066509;28;20276;-75
2021/05/18 14:34:48;;;;;;;4.17;1.70;;;;;;;;;;5066659;28;20205;-76
2021/05/18 14:37:14;;;;;;;3.72;1.63;;;;;;;;;;5067346;28;20399;-75
2021/05/18 14:45:01;;;;;;;2.63;1.20;;;;;;;;;;5055520;28;20203;-76
2021/05/18 14:47:32;;;;;;;2.08;1.65;;;;;;;;;;5054466;28;20181;-75
2021/05/18 14:55:29;;;;;;;1.63;1.40;;;;;;;;;;5065207;28;20180;-77
2021/05/18 14:57:55;;;;;;;1.52;1.10;;;;;;;;;;5064556;28;20181;-75
2021/05/18 15:00:21;;;;;;;2.15;1.58;;;;;;;;;;5065367;28;20259;-76
2021/05/18 15:02:48;;;;;;;3.20;2.08;;;;;;;;;;5064971;28;20181;-76
2021/05/18 15:05:16;;;;;;;3.75;1.38;;;;;;;;;;5065497;28;20203;-75
2021/05/18 15:07:42;;;;;;;2.28;1.63;;;;;;;;;;5065247;28;20320;-76
2021/05/18 15:10:08;;;;;;;2.00;1.30;;;;;;;;;;5064918;28;20228;-76
2021/05/18 15:12:34;;;;;;;3.15;1.40;;;;;;;;;;5060877;28;20700;-76
2021/05/18 15:15:00;;;;;;;2.93;1.57;;;;;;;;;;5064824;28;20205;-76
2021/05/18 15:17:26;;;;;;;1.97;1.30;;;;;;;;;;5080749;28;20428;-76
2021/05/18 15:19:53;;;;;;;2.85;1.25;;;;;;;;;;5051012;28;20442;-76
2021/05/18 15:22:19;;;;;;;3.00;1.25;;;;;;;;;;5060363;28;20189;-75
2021/05/18 15:24:45;;;;;;;3.35;1.55;;;;;;;;;;5070869;28;20188;-74
2021/05/18 15:27:11;;;;;;;2.23;1.30;;;;;;;;;;5067458;28;20192;-74
2021/05/18 15:29:38;;;;;;;7.33;2.47;;;;;;;;;;5063889;28;20499;-74
2021/05/18 15:32:05;;;;;;;2.00;1.30;;;;;;;;;;5064939;28;20921;-74
2021/05/18 15:34:31;;;;;;;2.03;1.45;;;;;;;;;;5072498;28;20646;-74
2021/05/18 15:36:57;;;;;;;3.35;1.30;;;;;;;;;;5052502;28;20179;-74
2021/05/18 15:39:28;;;;;;;2.30;1.40;;;;;;;;;;5068478;28;20183;-74
2021/05/18 15:41:54;;;;;;;3.13;1.45;;;;;;;;;;5053355;28;20674;-74
2021/05/18 15:44:20;;;;;;;2.30;1.33;;;;;;;;;;5074745;28;20183;-74
2021/05/18 15:46:46;;;;;;;4.50;1.55;;;;;;;;;;5064711;28;20528;-73
2021/05/18 15:49:11;;;;;;;5.73;1.50;;;;;;;;;;5061794;28;20175;-74
2021/05/18 15:51:38;;;;;;;1.53;1.40;;;;;;;;;;5052790;28;20426;-76
2021/05/18 15:54:05;;;;;;;1.45;1.25;;;;;;;;;;5061090;28;20532;-75
2021/05/18 15:56:31;;;;;;;2.22;1.38;;;;;;;;;;5077975;28;21585;-74
2021/05/18 15:58:57;;;;;;;2.30;1.40;;;;;;;;;;5064041;28;20198;-74
2021/05/18 16:01:23;;;;;;;1.87;1.07;;;;;;;;;;5076751;28;20430;-74
2021/05/18 16:03:49;;;;;;;1.83;1.23;;;;;;;;;;5062651;28;20508;-75
2021/05/18 16:06:15;;;;;;;1.00;0.80;;;;;;;;;;5061202;28;20226;-74
2021/05/18 16:11:09;;;;;;;1.90;1.10;;;;;;;;;;5064348;28;20297;-76
2021/05/18 16:13:35;;;;;;;3.85;1.30;;;;;;;;;;5046929;28;20446;-74
2021/05/18 16:16:12;;;;;;;1.95;1.00;;;;;;;;;;5062837;28;20216;-75
2021/05/18 16:18:39;;;;;;;2.50;1.20;;;;;;;;;;5060461;28;20181;-75
2021/05/18 16:21:24;;;;;;;2.13;1.35;;;;;;;;;;5058119;28;20542;-79
2021/05/18 16:23:58;;;;;;;3.47;1.70;;;;;;;;;;5062781;28;20189;-77
2021/05/18 16:26:34;;;;;;;2.97;1.50;;;;;;;;;;5060693;28;20602;-75
2021/05/18 16:29:00;;;;;;;3.42;1.65;;;;;;;;;;5063239;28;20215;-78
2021/05/18 16:31:28;;;;;;;2.65;1.48;;;;;;;;;;5074529;28;20220;-86
2021/05/18 16:33:54;;;;;;;2.63;1.13;;;;;;;;;;5051272;28;20272;-78
2021/05/18 16:36:20;;;;;;;2.15;0.93;;;;;;;;;;5059915;28;20181;-78
2021/05/18 16:38:47;;;;;;;6.10;1.30;;;;;;;;;;5056882;28;20212;-76
2021/05/18 16:41:13;;;;;;;1.65;0.95;;;;;;;;;;5063876;28;20436;-79
2021/05/18 16:43:39;;;;;;;2.55;1.15;;;;;;;;;;5063029;28;20212;-78
2021/05/18 16:46:07;;;;;;;5.32;1.10;;;;;;;;;;5050899;28;20636;-79
2021/05/18 16:48:36;;;;;;;5.18;1.30;;;;;;;;;;5077786;28;20276;-77
2021/05/18 16:51:06;;;;;;;4.00;1.50;;;;;;;;;;5061195;28;20181;-75
2021/05/18 16:53:32;;;;;;;2.70;1.30;;;;;;;;;;5062549;28;20276;-78
2021/05/18 16:55:59;;;;;;;2.15;1.13;;;;;;;;;;5061434;28;20459;-78
2021/05/18 16:58:25;;;;;;;1.00;0.90;;;;;;;;;;5057021;28;20212;-78
2021/05/18 17:00:51;;;;;;;5.72;1.67;;;;;;;;;;5061610;28;20226;-78
2021/05/18 17:03:17;;;;;;;2.50;1.30;;;;;;;;;;5054318;28;20190;-78
2021/05/18 17:05:43;;;;;;;1.63;1.27;;;;;;;;;;5066266;28;20792;-78
2021/05/18 17:08:09;;;;;;;3.42;1.52;;;;;;;;;;5058445;28;20440;-78
2021/05/18 17:10:37;;;;;;;3.83;1.52;;;;;;;;;;5061137;28;20221;-78
2021/05/18 17:13:03;;;;;;;2.70;1.88;;;;;;;;;;5061995;28;20533;-77
2021/05/18 17:15:29;;;;;;;2.00;1.80;;;;;;;;;;5068294;28;20216;-78
2021/05/18 17:17:56;;;;;;;2.47;2.13;;;;;;;;;;5055315;28;20177;-77
2021/05/18 17:20:22;;;;;;;1.58;1.48;;;;;;;;;;5063165;28;20181;-77
2021/05/18 17:22:48;;;;;;;2.45;2.28;;;;;;;;;;5061574;28;20179;-77
2021/05/18 17:25:15;;;;;;;4.82;2.15;;;;;;;;;;5063249;28;20236;-77
2021/05/18 17:27:41;;;;;;;3.05;2.20;;;;;;;;;;5056526;28;20262;-76
2021/05/18 17:30:12;;;;;;;3.35;2.15;;;;;;;;;;5051537;28;20216;-76
2021/05/18 17:32:38;;;;;;;2.10;1.90;;;;;;;;;;5066810;28;20782;-76
2021/05/18 17:35:06;;;;;;;7.32;2.40;;;;;;;;;;5058624;28;20244;-76
2021/05/18 17:37:32;;;;;;;2.75;2.25;;;;;;;;;;5047150;28;20170;-76
2021/05/18 17:40:01;;;;;;;3.45;1.70;;;;;;;;;;5050355;28;20182;-74
2021/05/18 17:42:27;;;;;;;3.83;1.98;;;;;;;;;;5074243;28;20184;-77
2021/05/18 17:44:57;;;;;;;3.47;1.70;;;;;;;;;;5061303;28;20195;-75
2021/05/18 17:47:23;;;;;;;2.00;1.73;;;;;;;;;;5061933;28;20524;-76
2021/05/18 17:49:49;;;;;;;2.13;1.60;;;;;;;;;;5061877;28;20211;-76
2021/05/18 17:52:15;;;;;;;3.35;1.75;;;;;;;;;;5075047;28;20185;-79
2021/05/18 17:54:43;;;;;;;3.92;1.70;;;;;;;;;;5074342;28;20205;-79
2021/05/18 17:57:09;;;;;;;2.83;1.63;;;;;;;;;;5073944;28;20207;-79
2021/05/18 17:59:35;;;;;;;2.35;1.67;;;;;;;;;;5056547;28;20180;-77
2021/05/18 18:02:05;;;;;;;2.57;1.90;;;;;;;;;;5076925;28;20181;-79
2021/05/18 18:04:31;;;;;;;2.55;1.80;;;;;;;;;;5059930;28;20419;-79
2021/05/18 18:06:57;;;;;;;2.55;1.63;;;;;;;;;;5065557;28;20193;-79
2021/05/18 18:09:24;;;;;;;4.30;1.30;;;;;;;;;;5065818;28;20191;-79
2021/05/18 18:11:50;;;;;;;3.88;1.75;;;;;;;;;;5062360;28;20449;-78
2021/05/18 18:14:16;;;;;;;2.13;1.40;;;;;;;;;;5063365;28;20201;-78
2021/05/18 18:16:42;;;;;;;2.73;1.73;;;;;;;;;;5064121;28;20262;-78
2021/05/18 18:19:08;;;;;;;2.30;1.40;;;;;;;;;;5065617;28;20947;-78
2021/05/18 18:21:34;;;;;;;5.10;2.00;;;;;;;;;;5062265;28;20185;-78
2021/05/18 18:24:00;;;;;;;3.25;2.20;;;;;;;;;;5059297;28;20440;-78
2021/05/18 18:26:26;;;;;;;2.22;1.98;;;;;;;;;;5054611;28;20184;-78
2021/05/18 18:28:53;;;;;;;2.65;2.00;;;;;;;;;;5073940;28;20181;-78
2021/05/18 18:31:20;;;;;;;3.13;2.20;;;;;;;;;;5065399;28;20252;-78
2021/05/18 18:33:46;;;;;;;3.88;2.15;;;;;;;;;;5081625;28;20277;-79
2021/05/18 18:36:12;;;;;;;2.70;1.70;;;;;;;;;;5079070;28;20211;-78
2021/05/18 18:38:38;;;;;;;4.35;2.53;;;;;;;;;;5065217;28;20328;-78
2021/05/18 18:41:04;;;;;;;3.90;2.15;;;;;;;;;;5079577;28;20417;-79
2021/05/18 18:43:30;;;;;;;3.25;2.30;;;;;;;;;;5077706;28;20196;-79
2021/05/18 18:45:56;;;;;;;3.70;2.80;;;;;;;;;;5064779;28;20177;-79
2021/05/18 18:48:22;;;;;;;2.70;2.50;;;;;;;;;;5063426;28;20438;-79
2021/05/18 18:51:01;;;;;;;6.95;2.55;;;;;;;;;;5065802;28;20727;-80
2021/05/18 18:53:44;;;;;;;5.88;2.30;;;;;;;;;;5060706;28;20205;-80
2021/05/18 18:56:10;;;;;;;3.30;2.00;;;;;;;;;;5060060;28;20185;-79
2021/05/18 18:58:37;;;;;;;3.40;2.28;;;;;;;;;;5059799;28;20185;-80
2021/05/18 19:01:04;;;;;;;4.13;2.22;;;;;;;;;;5057986;28;20200;-79
2021/05/18 19:03:33;;;;;;;5.43;2.65;;;;;;;;;;5056201;28;20204;-80
2021/05/18 19:13:55;;;;;;;3.38;2.97;;;;;;;;;;5060972;28;20316;-78
2021/05/18 19:16:21;;;;;;;10.90;3.03;;;;;;;;;;5067656;28;20180;-78
2021/05/18 19:18:47;;;;;;;5.80;2.90;;;;;;;;;;5061407;28;20173;-78
2021/05/18 19:21:14;;;;;;;10.45;2.90;;;;;;;;;;5058769;28;20436;-78
2021/05/18 19:23:40;;;;;;;7.45;2.70;;;;;;;;;;5058208;28;20192;-78
2021/05/18 19:26:06;;;;;;;5.40;2.50;;;;;;;;;;5060795;28;20245;-79
2021/05/18 19:28:33;;;;;;;5.47;2.80;;;;;;;;;;5064294;28;20181;-79
2021/05/18 19:30:59;;;;;;;7.25;2.58;;;;;;;;;;5057377;28;20192;-78
2021/05/18 19:33:26;;;;;;;7.93;2.95;;;;;;;;;;5056014;28;20221;-77
2021/05/18 19:49:24;;;;;;;5.63;3.13;;;;;;;;;;5060087;28;20215;-78
2021/05/18 19:51:50;;;;;;;7.55;3.92;;;;;;;;;;5069725;28;20519;-78
2021/05/18 19:54:22;;;;;;;4.93;3.70;;;;;;;;;;5061872;28;20760;-78
2021/05/18 20:20:46;;;;;;;6.75;4.30;;;;;;;;;;5019581;28;20260;-77
2021/05/18 20:23:12;;;;;;;3.40;3.20;;;;;;;;;;5013009;28;20193;-78
2021/05/18 20:25:38;;;;;;;11.43;4.00;;;;;;;;;;5020725;28;20234;-78
2021/05/18 20:28:04;;;;;;;7.32;4.50;;;;;;;;;;5013440;28;20433;-78
2021/05/18 20:30:30;;;;;;;5.88;3.80;;;;;;;;;;5019465;28;20190;-78
2021/05/18 20:32:57;;;;;;;9.20;4.90;;;;;;;;;;5019517;28;20202;-77
2021/05/18 20:40:34;;;;;;;7.30;3.80;;;;;;;;;;5016236;28;20409;-78